sensor_id;sensor_type;location;lat;lon;timestamp;P1;durP1;ratioP1;P2;durP2;ratioP2
35074;SDS011;21260;34.984;32.490;2023-05-20T00:02:07;6.70;;;3.87;;
35074;SDS011;21260;34.984;32.490;2023-05-20T00:04:34;10.50;;;4.57;;
35074;SDS011;21260;34.984;32.490;2023-05-20T00:07:00;8.10;;;3.67;;
35074;SDS011;21260;34.984;32.490;2023-05-20T00:09:27;11.57;;;4.67;;
35074;SDS011;21260;34.984;32.490;2023-05-20T00:11:54;9.30;;;4.30;;
35074;SDS011;21260;34.984;32.490;2023-05-20T00:14:20;11.23;;;4.97;;
35074;SDS011;21260;34.984;32.490;2023-05-20T00:16:46;14.13;;;4.80;;
35074;SDS011;21260;34.984;32.490;2023-05-20T00:19:12;10.97;;;4.80;;
35074;SDS011;21260;34.984;32.490;2023-05-20T00:21:38;11.53;;;4.77;;
35074;SDS011;21260;34.984;32.490;2023-05-20T00:24:05;13.43;;;4.60;;
35074;SDS011;21260;34.984;32.490;2023-05-20T00:26:31;11.07;;;4.40;;
35074;SDS011;21260;34.984;32.490;2023-05-20T00:28:57;11.87;;;4.67;;
35074;SDS011;21260;34.984;32.490;2023-05-20T00:31:24;10.70;;;4.43;;
35074;SDS011;21260;34.984;32.490;2023-05-20T00:33:50;10.90;;;4.17;;
35074;SDS011;21260;34.984;32.490;2023-05-20T00:36:16;9.87;;;4.50;;
35074;SDS011;21260;34.984;32.490;2023-05-20T00:38:43;9.67;;;4.80;;
35074;SDS011;21260;34.984;32.490;2023-05-20T00:41:09;10.50;;;4.60;;
35074;SDS011;21260;34.984;32.490;2023-05-20T00:43:35;10.30;;;4.20;;
35074;SDS011;21260;34.984;32.490;2023-05-20T00:46:01;9.07;;;4.20;;
35074;SDS011;21260;34.984;32.490;2023-05-20T00:48:32;20.07;;;5.13;;
35074;SDS011;21260;34.984;32.490;2023-05-20T00:51:07;8.30;;;3.90;;
35074;SDS011;21260;34.984;32.490;2023-05-20T00:53:35;10.53;;;4.50;;
35074;SDS011;21260;34.984;32.490;2023-05-20T00:56:02;10.27;;;3.93;;
35074;SDS011;21260;34.984;32.490;2023-05-20T00:58:29;10.13;;;4.30;;
35074;SDS011;21260;34.984;32.490;2023-05-20T01:00:56;11.47;;;3.67;;
35074;SDS011;21260;34.984;32.490;2023-05-20T01:03:23;11.53;;;4.90;;
35074;SDS011;21260;34.984;32.490;2023-05-20T01:05:49;8.03;;;4.63;;
35074;SDS011;21260;34.984;32.490;2023-05-20T01:08:15;9.37;;;4.90;;
35074;SDS011;21260;34.984;32.490;2023-05-20T01:10:44;15.00;;;5.00;;
35074;SDS011;21260;34.984;32.490;2023-05-20T01:13:20;11.63;;;4.70;;
35074;SDS011;21260;34.984;32.490;2023-05-20T01:15:58;11.87;;;4.80;;
35074;SDS011;21260;34.984;32.490;2023-05-20T01:18:27;15.90;;;5.23;;
35074;SDS011;21260;34.984;32.490;2023-05-20T01:20:56;11.93;;;4.77;;
35074;SDS011;21260;34.984;32.490;2023-05-20T01:23:36;16.70;;;5.20;;
35074;SDS011;21260;34.984;32.490;2023-05-20T01:26:07;11.57;;;4.67;;
35074;SDS011;21260;34.984;32.490;2023-05-20T01:28:38;14.27;;;4.67;;
35074;SDS011;21260;34.984;32.490;2023-05-20T01:31:30;13.50;;;4.77;;
35074;SDS011;21260;34.984;32.490;2023-05-20T01:33:57;9.10;;;4.23;;
35074;SDS011;21260;34.984;32.490;2023-05-20T01:36:25;13.23;;;5.37;;
35074;SDS011;21260;34.984;32.490;2023-05-20T01:38:55;11.67;;;4.77;;
35074;SDS011;21260;34.984;32.490;2023-05-20T01:41:23;9.07;;;4.87;;
35074;SDS011;21260;34.984;32.490;2023-05-20T01:43:51;14.93;;;5.07;;
35074;SDS011;21260;34.984;32.490;2023-05-20T01:46:19;13.97;;;4.57;;
35074;SDS011;21260;34.984;32.490;2023-05-20T01:48:46;9.50;;;4.63;;
35074;SDS011;21260;34.984;32.490;2023-05-20T01:51:12;13.13;;;5.00;;
35074;SDS011;21260;34.984;32.490;2023-05-20T01:53:38;11.10;;;5.10;;
35074;SDS011;21260;34.984;32.490;2023-05-20T01:56:05;14.37;;;4.93;;
35074;SDS011;21260;34.984;32.490;2023-05-20T01:58:31;14.27;;;4.93;;
35074;SDS011;21260;34.984;32.490;2023-05-20T02:00:58;13.63;;;5.03;;
35074;SDS011;21260;34.984;32.490;2023-05-20T02:03:24;11.63;;;4.47;;
35074;SDS011;21260;34.984;32.490;2023-05-20T02:05:50;14.70;;;4.87;;
35074;SDS011;21260;34.984;32.490;2023-05-20T02:08:17;8.70;;;4.27;;
35074;SDS011;21260;34.984;32.490;2023-05-20T02:10:43;13.93;;;5.10;;
35074;SDS011;21260;34.984;32.490;2023-05-20T02:13:13;9.90;;;4.27;;
35074;SDS011;21260;34.984;32.490;2023-05-20T02:15:42;12.10;;;4.47;;
35074;SDS011;21260;34.984;32.490;2023-05-20T02:18:09;13.03;;;4.43;;
35074;SDS011;21260;34.984;32.490;2023-05-20T02:20:36;13.43;;;4.70;;
35074;SDS011;21260;34.984;32.490;2023-05-20T02:23:03;10.13;;;4.67;;
35074;SDS011;21260;34.984;32.490;2023-05-20T02:25:32;11.30;;;4.87;;
35074;SDS011;21260;34.984;32.490;2023-05-20T02:28:00;12.23;;;5.00;;
35074;SDS011;21260;34.984;32.490;2023-05-20T02:30:30;12.60;;;4.30;;
35074;SDS011;21260;34.984;32.490;2023-05-20T02:32:56;9.87;;;4.40;;
35074;SDS011;21260;34.984;32.490;2023-05-20T02:35:23;14.13;;;4.70;;
35074;SDS011;21260;34.984;32.490;2023-05-20T02:37:50;12.93;;;4.53;;
35074;SDS011;21260;34.984;32.490;2023-05-20T02:40:16;12.80;;;4.63;;
35074;SDS011;21260;34.984;32.490;2023-05-20T02:42:42;11.53;;;4.87;;
35074;SDS011;21260;34.984;32.490;2023-05-20T02:45:08;13.80;;;4.50;;
35074;SDS011;21260;34.984;32.490;2023-05-20T02:47:35;15.30;;;4.90;;
35074;SDS011;21260;34.984;32.490;2023-05-20T02:50:02;10.57;;;4.53;;
35074;SDS011;21260;34.984;32.490;2023-05-20T02:52:28;14.80;;;4.73;;
35074;SDS011;21260;34.984;32.490;2023-05-20T02:54:55;13.10;;;4.97;;
35074;SDS011;21260;34.984;32.490;2023-05-20T02:57:21;13.60;;;5.40;;
35074;SDS011;21260;34.984;32.490;2023-05-20T02:59:47;11.43;;;4.57;;
35074;SDS011;21260;34.984;32.490;2023-05-20T03:02:16;16.33;;;6.03;;
35074;SDS011;21260;34.984;32.490;2023-05-20T03:04:42;14.57;;;5.07;;
35074;SDS011;21260;34.984;32.490;2023-05-20T03:07:10;12.90;;;4.83;;
35074;SDS011;21260;34.984;32.490;2023-05-20T03:09:37;12.30;;;4.53;;
35074;SDS011;21260;34.984;32.490;2023-05-20T03:12:03;17.37;;;5.33;;
35074;SDS011;21260;34.984;32.490;2023-05-20T03:14:30;10.93;;;4.90;;
35074;SDS011;21260;34.984;32.490;2023-05-20T03:16:56;12.27;;;4.87;;
35074;SDS011;21260;34.984;32.490;2023-05-20T03:19:24;14.13;;;5.27;;
35074;SDS011;21260;34.984;32.490;2023-05-20T03:21:51;15.20;;;5.03;;
35074;SDS011;21260;34.984;32.490;2023-05-20T03:24:17;11.67;;;4.70;;
35074;SDS011;21260;34.984;32.490;2023-05-20T03:26:44;13.90;;;4.77;;
35074;SDS011;21260;34.984;32.490;2023-05-20T03:29:11;16.23;;;4.83;;
35074;SDS011;21260;34.984;32.490;2023-05-20T03:31:37;13.87;;;5.20;;
35074;SDS011;21260;34.984;32.490;2023-05-20T03:34:03;15.83;;;4.90;;
35074;SDS011;21260;34.984;32.490;2023-05-20T03:36:29;10.80;;;4.43;;
35074;SDS011;21260;34.984;32.490;2023-05-20T03:38:56;13.33;;;4.30;;
35074;SDS011;21260;34.984;32.490;2023-05-20T03:41:22;10.57;;;4.53;;
35074;SDS011;21260;34.984;32.490;2023-05-20T03:43:49;10.07;;;4.60;;
35074;SDS011;21260;34.984;32.490;2023-05-20T03:46:15;15.97;;;4.33;;
35074;SDS011;21260;34.984;32.490;2023-05-20T03:48:41;11.53;;;4.47;;
35074;SDS011;21260;34.984;32.490;2023-05-20T03:51:07;12.90;;;4.47;;
35074;SDS011;21260;34.984;32.490;2023-05-20T03:53:34;10.27;;;4.30;;
35074;SDS011;21260;34.984;32.490;2023-05-20T03:56:00;10.87;;;4.63;;
35074;SDS011;21260;34.984;32.490;2023-05-20T03:58:26;10.97;;;4.30;;
35074;SDS011;21260;34.984;32.490;2023-05-20T04:00:53;12.23;;;4.60;;
35074;SDS011;21260;34.984;32.490;2023-05-20T04:03:20;13.47;;;5.03;;
35074;SDS011;21260;34.984;32.490;2023-05-20T04:05:47;10.37;;;4.40;;
35074;SDS011;21260;34.984;32.490;2023-05-20T04:08:14;14.27;;;4.60;;
35074;SDS011;21260;34.984;32.490;2023-05-20T04:10:43;10.03;;;4.00;;
35074;SDS011;21260;34.984;32.490;2023-05-20T04:13:10;12.30;;;4.97;;
35074;SDS011;21260;34.984;32.490;2023-05-20T04:15:37;14.13;;;5.00;;
35074;SDS011;21260;34.984;32.490;2023-05-20T04:18:04;11.63;;;4.27;;
35074;SDS011;21260;34.984;32.490;2023-05-20T04:20:30;10.63;;;4.43;;
35074;SDS011;21260;34.984;32.490;2023-05-20T04:22:57;15.40;;;5.40;;
35074;SDS011;21260;34.984;32.490;2023-05-20T04:25:23;15.23;;;4.17;;
35074;SDS011;21260;34.984;32.490;2023-05-20T04:27:50;16.83;;;4.90;;
35074;SDS011;21260;34.984;32.490;2023-05-20T04:30:18;7.90;;;3.83;;
35074;SDS011;21260;34.984;32.490;2023-05-20T04:32:46;11.10;;;4.37;;
35074;SDS011;21260;34.984;32.490;2023-05-20T04:35:14;11.47;;;4.63;;
35074;SDS011;21260;34.984;32.490;2023-05-20T04:37:41;14.13;;;4.67;;
35074;SDS011;21260;34.984;32.490;2023-05-20T04:40:11;12.63;;;4.40;;
35074;SDS011;21260;34.984;32.490;2023-05-20T04:42:38;9.73;;;3.90;;
35074;SDS011;21260;34.984;32.490;2023-05-20T04:45:05;8.07;;;4.03;;
35074;SDS011;21260;34.984;32.490;2023-05-20T04:47:32;12.83;;;4.10;;
35074;SDS011;21260;34.984;32.490;2023-05-20T04:50:04;11.07;;;4.63;;
35074;SDS011;21260;34.984;32.490;2023-05-20T04:52:37;12.87;;;3.63;;
35074;SDS011;21260;34.984;32.490;2023-05-20T04:55:07;11.97;;;3.80;;
35074;SDS011;21260;34.984;32.490;2023-05-20T04:57:34;11.57;;;3.80;;
35074;SDS011;21260;34.984;32.490;2023-05-20T05:00:04;7.67;;;4.27;;
35074;SDS011;21260;34.984;32.490;2023-05-20T05:02:32;10.93;;;4.27;;
35074;SDS011;21260;34.984;32.490;2023-05-20T05:04:59;14.37;;;4.37;;
35074;SDS011;21260;34.984;32.490;2023-05-20T05:07:25;11.47;;;4.40;;
35074;SDS011;21260;34.984;32.490;2023-05-20T05:09:52;14.13;;;4.37;;
35074;SDS011;21260;34.984;32.490;2023-05-20T05:12:18;9.93;;;3.87;;
35074;SDS011;21260;34.984;32.490;2023-05-20T05:14:45;12.70;;;4.20;;
35074;SDS011;21260;34.984;32.490;2023-05-20T05:17:11;11.40;;;4.40;;
35074;SDS011;21260;34.984;32.490;2023-05-20T05:19:37;13.10;;;4.70;;
35074;SDS011;21260;34.984;32.490;2023-05-20T05:22:05;7.93;;;4.33;;
35074;SDS011;21260;34.984;32.490;2023-05-20T05:24:32;11.17;;;4.00;;
35074;SDS011;21260;34.984;32.490;2023-05-20T05:26:58;11.43;;;4.17;;
35074;SDS011;21260;34.984;32.490;2023-05-20T05:29:25;10.23;;;4.80;;
35074;SDS011;21260;34.984;32.490;2023-05-20T05:31:51;12.40;;;5.13;;
35074;SDS011;21260;34.984;32.490;2023-05-20T05:34:17;11.17;;;4.90;;
35074;SDS011;21260;34.984;32.490;2023-05-20T05:36:44;10.30;;;4.47;;
35074;SDS011;21260;34.984;32.490;2023-05-20T05:39:10;10.87;;;5.20;;
35074;SDS011;21260;34.984;32.490;2023-05-20T05:41:37;12.97;;;4.80;;
35074;SDS011;21260;34.984;32.490;2023-05-20T05:44:03;13.17;;;4.97;;
35074;SDS011;21260;34.984;32.490;2023-05-20T05:46:29;9.40;;;4.90;;
35074;SDS011;21260;34.984;32.490;2023-05-20T05:48:57;10.17;;;4.73;;
35074;SDS011;21260;34.984;32.490;2023-05-20T05:51:23;9.60;;;4.43;;
35074;SDS011;21260;34.984;32.490;2023-05-20T05:53:52;10.63;;;5.20;;
35074;SDS011;21260;34.984;32.490;2023-05-20T05:56:22;6.97;;;4.50;;
35074;SDS011;21260;34.984;32.490;2023-05-20T05:58:48;10.93;;;4.70;;
35074;SDS011;21260;34.984;32.490;2023-05-20T06:01:17;10.27;;;5.20;;
35074;SDS011;21260;34.984;32.490;2023-05-20T06:03:43;13.30;;;5.17;;
35074;SDS011;21260;34.984;32.490;2023-05-20T06:06:10;10.00;;;4.77;;
35074;SDS011;21260;34.984;32.490;2023-05-20T06:08:36;10.17;;;4.90;;
35074;SDS011;21260;34.984;32.490;2023-05-20T06:11:03;9.80;;;5.43;;
35074;SDS011;21260;34.984;32.490;2023-05-20T06:13:29;10.13;;;4.83;;
35074;SDS011;21260;34.984;32.490;2023-05-20T06:15:56;9.90;;;4.70;;
35074;SDS011;21260;34.984;32.490;2023-05-20T06:18:22;9.43;;;4.60;;
35074;SDS011;21260;34.984;32.490;2023-05-20T06:20:57;10.90;;;4.60;;
35074;SDS011;21260;34.984;32.490;2023-05-20T06:23:24;8.17;;;5.30;;
35074;SDS011;21260;34.984;32.490;2023-05-20T06:25:51;8.47;;;4.80;;
35074;SDS011;21260;34.984;32.490;2023-05-20T06:28:17;11.93;;;4.67;;
35074;SDS011;21260;34.984;32.490;2023-05-20T06:30:44;12.13;;;4.70;;
35074;SDS011;21260;34.984;32.490;2023-05-20T06:33:11;6.73;;;4.43;;
35074;SDS011;21260;34.984;32.490;2023-05-20T06:35:37;8.63;;;4.13;;
35074;SDS011;21260;34.984;32.490;2023-05-20T06:38:03;9.03;;;4.67;;
35074;SDS011;21260;34.984;32.490;2023-05-20T06:40:30;8.27;;;4.50;;
35074;SDS011;21260;34.984;32.490;2023-05-20T06:42:56;11.27;;;4.80;;
35074;SDS011;21260;34.984;32.490;2023-05-20T06:45:22;9.37;;;4.20;;
35074;SDS011;21260;34.984;32.490;2023-05-20T06:47:49;10.23;;;3.60;;
35074;SDS011;21260;34.984;32.490;2023-05-20T06:50:15;8.37;;;4.10;;
35074;SDS011;21260;34.984;32.490;2023-05-20T06:52:43;12.57;;;4.30;;
35074;SDS011;21260;34.984;32.490;2023-05-20T06:55:10;11.20;;;3.77;;
35074;SDS011;21260;34.984;32.490;2023-05-20T06:57:36;11.37;;;4.03;;
35074;SDS011;21260;34.984;32.490;2023-05-20T07:00:03;9.00;;;3.50;;
35074;SDS011;21260;34.984;32.490;2023-05-20T07:02:32;8.93;;;4.03;;
35074;SDS011;21260;34.984;32.490;2023-05-20T07:04:58;7.47;;;3.73;;
35074;SDS011;21260;34.984;32.490;2023-05-20T07:07:25;7.30;;;3.50;;
35074;SDS011;21260;34.984;32.490;2023-05-20T07:09:51;7.83;;;3.57;;
35074;SDS011;21260;34.984;32.490;2023-05-20T07:12:19;7.37;;;3.27;;
35074;SDS011;21260;34.984;32.490;2023-05-20T07:14:45;6.20;;;3.40;;
35074;SDS011;21260;34.984;32.490;2023-05-20T07:17:11;7.27;;;3.67;;
35074;SDS011;21260;34.984;32.490;2023-05-20T07:19:38;5.47;;;3.03;;
35074;SDS011;21260;34.984;32.490;2023-05-20T07:22:04;5.63;;;2.93;;
35074;SDS011;21260;34.984;32.490;2023-05-20T07:24:31;8.20;;;4.30;;
35074;SDS011;21260;34.984;32.490;2023-05-20T07:26:59;15.47;;;4.83;;
35074;SDS011;21260;34.984;32.490;2023-05-20T07:29:25;10.40;;;4.10;;
35074;SDS011;21260;34.984;32.490;2023-05-20T07:31:52;14.03;;;4.70;;
35074;SDS011;21260;34.984;32.490;2023-05-20T07:34:18;9.93;;;4.33;;
35074;SDS011;21260;34.984;32.490;2023-05-20T07:36:46;12.60;;;4.27;;
35074;SDS011;21260;34.984;32.490;2023-05-20T07:39:14;9.97;;;4.60;;
35074;SDS011;21260;34.984;32.490;2023-05-20T07:41:40;12.27;;;4.63;;
35074;SDS011;21260;34.984;32.490;2023-05-20T07:44:07;8.50;;;4.83;;
35074;SDS011;21260;34.984;32.490;2023-05-20T07:46:35;10.87;;;4.47;;
35074;SDS011;21260;34.984;32.490;2023-05-20T07:49:02;10.63;;;3.93;;
35074;SDS011;21260;34.984;32.490;2023-05-20T07:51:29;10.13;;;4.70;;
35074;SDS011;21260;34.984;32.490;2023-05-20T07:53:56;8.70;;;4.07;;
35074;SDS011;21260;34.984;32.490;2023-05-20T07:56:24;13.87;;;4.77;;
35074;SDS011;21260;34.984;32.490;2023-05-20T07:58:55;10.17;;;4.13;;
35074;SDS011;21260;34.984;32.490;2023-05-20T08:01:24;9.43;;;4.00;;
35074;SDS011;21260;34.984;32.490;2023-05-20T08:03:51;10.30;;;4.20;;
35074;SDS011;21260;34.984;32.490;2023-05-20T08:06:18;11.87;;;4.70;;
35074;SDS011;21260;34.984;32.490;2023-05-20T08:08:45;10.50;;;4.30;;
35074;SDS011;21260;34.984;32.490;2023-05-20T08:11:12;9.63;;;4.53;;
35074;SDS011;21260;34.984;32.490;2023-05-20T08:13:39;9.10;;;4.30;;
35074;SDS011;21260;34.984;32.490;2023-05-20T08:16:05;10.80;;;4.27;;
35074;SDS011;21260;34.984;32.490;2023-05-20T08:18:33;8.63;;;4.30;;
35074;SDS011;21260;34.984;32.490;2023-05-20T08:21:04;22.47;;;4.90;;
35074;SDS011;21260;34.984;32.490;2023-05-20T08:23:34;8.90;;;4.50;;
35074;SDS011;21260;34.984;32.490;2023-05-20T08:26:01;10.33;;;4.60;;
35074;SDS011;21260;34.984;32.490;2023-05-20T08:28:29;9.70;;;4.40;;
35074;SDS011;21260;34.984;32.490;2023-05-20T08:30:56;8.60;;;4.23;;
35074;SDS011;21260;34.984;32.490;2023-05-20T08:33:28;11.90;;;4.40;;
35074;SDS011;21260;34.984;32.490;2023-05-20T08:35:55;11.17;;;4.73;;
35074;SDS011;21260;34.984;32.490;2023-05-20T08:38:21;9.20;;;4.00;;
35074;SDS011;21260;34.984;32.490;2023-05-20T08:40:53;6.60;;;3.93;;
35074;SDS011;21260;34.984;32.490;2023-05-20T08:43:21;9.60;;;3.90;;
35074;SDS011;21260;34.984;32.490;2023-05-20T08:45:49;8.73;;;3.20;;
35074;SDS011;21260;34.984;32.490;2023-05-20T08:48:24;8.53;;;3.90;;
35074;SDS011;21260;34.984;32.490;2023-05-20T08:50:52;11.93;;;3.70;;
35074;SDS011;21260;34.984;32.490;2023-05-20T08:53:22;10.53;;;3.77;;
35074;SDS011;21260;34.984;32.490;2023-05-20T08:55:52;12.40;;;3.60;;
35074;SDS011;21260;34.984;32.490;2023-05-20T08:58:22;8.93;;;3.50;;
35074;SDS011;21260;34.984;32.490;2023-05-20T09:00:53;9.93;;;3.57;;
35074;SDS011;21260;34.984;32.490;2023-05-20T09:03:20;9.67;;;3.43;;
35074;SDS011;21260;34.984;32.490;2023-05-20T09:05:48;7.37;;;3.40;;
35074;SDS011;21260;34.984;32.490;2023-05-20T09:08:14;7.60;;;3.20;;
35074;SDS011;21260;34.984;32.490;2023-05-20T09:10:41;6.32;;;3.33;;
35074;SDS011;21260;34.984;32.490;2023-05-20T09:13:08;11.47;;;3.10;;
35074;SDS011;21260;34.984;32.490;2023-05-20T09:15:35;13.43;;;3.40;;
35074;SDS011;21260;34.984;32.490;2023-05-20T09:18:04;9.15;;;3.28;;
35074;SDS011;21260;34.984;32.490;2023-05-20T09:20:36;8.90;;;3.53;;
35074;SDS011;21260;34.984;32.490;2023-05-20T09:23:05;8.57;;;3.13;;
35074;SDS011;21260;34.984;32.490;2023-05-20T09:25:34;7.45;;;3.53;;
35074;SDS011;21260;34.984;32.490;2023-05-20T09:28:04;10.27;;;3.50;;
35074;SDS011;21260;34.984;32.490;2023-05-20T09:30:34;9.45;;;3.70;;
35074;SDS011;21260;34.984;32.490;2023-05-20T09:33:03;8.30;;;3.70;;
35074;SDS011;21260;34.984;32.490;2023-05-20T09:35:29;10.88;;;3.63;;
35074;SDS011;21260;34.984;32.490;2023-05-20T09:38:04;8.15;;;3.15;;
35074;SDS011;21260;34.984;32.490;2023-05-20T09:40:34;10.90;;;3.80;;
35074;SDS011;21260;34.984;32.490;2023-05-20T09:43:04;9.60;;;3.67;;
35074;SDS011;21260;34.984;32.490;2023-05-20T09:45:31;8.95;;;4.00;;
35074;SDS011;21260;34.984;32.490;2023-05-20T09:47:58;6.72;;;3.28;;
35074;SDS011;21260;34.984;32.490;2023-05-20T09:50:27;8.55;;;4.00;;
35074;SDS011;21260;34.984;32.490;2023-05-20T09:52:54;10.32;;;3.65;;
35074;SDS011;21260;34.984;32.490;2023-05-20T09:55:23;7.75;;;3.10;;
35074;SDS011;21260;34.984;32.490;2023-05-20T09:57:50;8.98;;;3.72;;
35074;SDS011;21260;34.984;32.490;2023-05-20T10:00:18;12.98;;;3.65;;
35074;SDS011;21260;34.984;32.490;2023-05-20T10:02:49;10.10;;;3.67;;
35074;SDS011;21260;34.984;32.490;2023-05-20T10:05:20;7.38;;;3.22;;
35074;SDS011;21260;34.984;32.490;2023-05-20T10:14:42;7.15;;;3.63;;
35074;SDS011;21260;34.984;32.490;2023-05-20T10:20:28;11.27;;;3.63;;
35074;SDS011;21260;34.984;32.490;2023-05-20T10:22:56;9.30;;;3.65;;
35074;SDS011;21260;34.984;32.490;2023-05-20T10:25:28;9.40;;;3.45;;
35074;SDS011;21260;34.984;32.490;2023-05-20T10:28:04;9.63;;;3.60;;
35074;SDS011;21260;34.984;32.490;2023-05-20T10:30:33;9.02;;;3.95;;
35074;SDS011;21260;34.984;32.490;2023-05-20T10:33:04;10.15;;;3.63;;
35074;SDS011;21260;34.984;32.490;2023-05-20T10:35:32;11.93;;;4.30;;
35074;SDS011;21260;34.984;32.490;2023-05-20T10:38:09;8.35;;;3.25;;
35074;SDS011;21260;34.984;32.490;2023-05-20T10:40:38;11.82;;;3.90;;
35074;SDS011;21260;34.984;32.490;2023-05-20T10:43:09;10.10;;;3.67;;
35074;SDS011;21260;34.984;32.490;2023-05-20T10:45:52;8.20;;;3.60;;
35074;SDS011;21260;34.984;32.490;2023-05-20T10:48:28;7.47;;;3.70;;
35074;SDS011;21260;34.984;32.490;2023-05-20T10:50:59;9.18;;;4.00;;
35074;SDS011;21260;34.984;32.490;2023-05-20T10:53:40;7.07;;;3.53;;
35074;SDS011;21260;34.984;32.490;2023-05-20T10:56:16;9.25;;;3.72;;
35074;SDS011;21260;34.984;32.490;2023-05-20T10:58:45;8.60;;;3.80;;
35074;SDS011;21260;34.984;32.490;2023-05-20T11:01:14;8.35;;;3.65;;
35074;SDS011;21260;34.984;32.490;2023-05-20T11:03:46;8.98;;;3.33;;
35074;SDS011;21260;34.984;32.490;2023-05-20T11:06:14;8.93;;;3.72;;
35074;SDS011;21260;34.984;32.490;2023-05-20T11:08:42;5.82;;;3.03;;
35074;SDS011;21260;34.984;32.490;2023-05-20T11:11:10;7.50;;;3.53;;
35074;SDS011;21260;34.984;32.490;2023-05-20T11:13:39;7.28;;;3.28;;
35074;SDS011;21260;34.984;32.490;2023-05-20T11:16:06;10.43;;;3.70;;
35074;SDS011;21260;34.984;32.490;2023-05-20T11:18:33;10.40;;;3.50;;
35074;SDS011;21260;34.984;32.490;2023-05-20T11:21:00;8.48;;;3.40;;
35074;SDS011;21260;34.984;32.490;2023-05-20T11:23:27;9.95;;;3.35;;
35074;SDS011;21260;34.984;32.490;2023-05-20T11:26:04;8.05;;;3.40;;
35074;SDS011;21260;34.984;32.490;2023-05-20T11:28:31;9.75;;;3.15;;
35074;SDS011;21260;34.984;32.490;2023-05-20T11:30:59;14.55;;;3.90;;
35074;SDS011;21260;34.984;32.490;2023-05-20T11:33:26;9.38;;;3.72;;
35074;SDS011;21260;34.984;32.490;2023-05-20T11:35:53;9.73;;;3.70;;
35074;SDS011;21260;34.984;32.490;2023-05-20T11:38:22;6.35;;;3.58;;
35074;SDS011;21260;34.984;32.490;2023-05-20T11:40:53;10.93;;;3.60;;
35074;SDS011;21260;34.984;32.490;2023-05-20T11:43:22;8.65;;;3.30;;
35074;SDS011;21260;34.984;32.490;2023-05-20T11:45:55;9.35;;;3.60;;
35074;SDS011;21260;34.984;32.490;2023-05-20T11:48:24;8.27;;;3.42;;
35074;SDS011;21260;34.984;32.490;2023-05-20T11:50:52;10.90;;;3.53;;
35074;SDS011;21260;34.984;32.490;2023-05-20T11:53:20;9.93;;;3.17;;
35074;SDS011;21260;34.984;32.490;2023-05-20T11:55:49;10.30;;;3.03;;
35074;SDS011;21260;34.984;32.490;2023-05-20T11:58:39;11.65;;;3.72;;
35074;SDS011;21260;34.984;32.490;2023-05-20T12:01:11;8.52;;;3.53;;
35074;SDS011;21260;34.984;32.490;2023-05-20T12:03:37;11.30;;;3.70;;
35074;SDS011;21260;34.984;32.490;2023-05-20T12:06:03;8.27;;;3.05;;
35074;SDS011;21260;34.984;32.490;2023-05-20T12:08:30;8.38;;;4.00;;
35074;SDS011;21260;34.984;32.490;2023-05-20T12:11:00;10.25;;;3.55;;
35074;SDS011;21260;34.984;32.490;2023-05-20T12:13:27;10.82;;;3.58;;
35074;SDS011;21260;34.984;32.490;2023-05-20T12:15:54;10.43;;;4.10;;
35074;SDS011;21260;34.984;32.490;2023-05-20T12:18:21;7.75;;;3.10;;
35074;SDS011;21260;34.984;32.490;2023-05-20T12:20:47;6.72;;;3.35;;
35074;SDS011;21260;34.984;32.490;2023-05-20T12:23:14;9.23;;;3.47;;
35074;SDS011;21260;34.984;32.490;2023-05-20T12:25:40;12.82;;;3.42;;
35074;SDS011;21260;34.984;32.490;2023-05-20T12:28:06;8.77;;;3.13;;
35074;SDS011;21260;34.984;32.490;2023-05-20T12:30:33;5.93;;;3.00;;
35074;SDS011;21260;34.984;32.490;2023-05-20T12:32:59;7.07;;;3.10;;
35074;SDS011;21260;34.984;32.490;2023-05-20T12:35:37;9.48;;;3.47;;
35074;SDS011;21260;34.984;32.490;2023-05-20T12:38:05;8.30;;;3.15;;
35074;SDS011;21260;34.984;32.490;2023-05-20T12:40:33;10.20;;;3.20;;
35074;SDS011;21260;34.984;32.490;2023-05-20T12:43:00;8.25;;;3.33;;
35074;SDS011;21260;34.984;32.490;2023-05-20T12:45:29;11.32;;;3.50;;
35074;SDS011;21260;34.984;32.490;2023-05-20T12:47:56;8.60;;;3.22;;
35074;SDS011;21260;34.984;32.490;2023-05-20T12:50:23;10.38;;;3.10;;
35074;SDS011;21260;34.984;32.490;2023-05-20T12:52:50;11.05;;;3.15;;
35074;SDS011;21260;34.984;32.490;2023-05-20T12:55:16;9.65;;;3.30;;
35074;SDS011;21260;34.984;32.490;2023-05-20T12:57:43;8.77;;;3.30;;
35074;SDS011;21260;34.984;32.490;2023-05-20T13:00:11;9.85;;;3.10;;
35074;SDS011;21260;34.984;32.490;2023-05-20T13:02:38;10.52;;;3.17;;
35074;SDS011;21260;34.984;32.490;2023-05-20T13:05:06;10.77;;;3.10;;
35074;SDS011;21260;34.984;32.490;2023-05-20T13:07:33;9.70;;;3.23;;
35074;SDS011;21260;34.984;32.490;2023-05-20T13:10:02;9.17;;;3.50;;
35074;SDS011;21260;34.984;32.490;2023-05-20T13:12:29;11.45;;;3.42;;
35074;SDS011;21260;34.984;32.490;2023-05-20T13:14:57;11.50;;;3.60;;
35074;SDS011;21260;34.984;32.490;2023-05-20T13:17:23;10.88;;;3.35;;
35074;SDS011;21260;34.984;32.490;2023-05-20T13:19:49;7.80;;;2.63;;
35074;SDS011;21260;34.984;32.490;2023-05-20T13:22:16;5.63;;;2.60;;
35074;SDS011;21260;34.984;32.490;2023-05-20T13:24:42;9.93;;;3.37;;
35074;SDS011;21260;34.984;32.490;2023-05-20T13:27:08;8.48;;;3.00;;
35074;SDS011;21260;34.984;32.490;2023-05-20T13:29:35;9.27;;;2.93;;
35074;SDS011;21260;34.984;32.490;2023-05-20T13:32:02;8.70;;;3.07;;
35074;SDS011;21260;34.984;32.490;2023-05-20T13:34:30;9.70;;;3.20;;
35074;SDS011;21260;34.984;32.490;2023-05-20T13:36:57;9.80;;;3.53;;
35074;SDS011;21260;34.984;32.490;2023-05-20T13:39:23;8.77;;;2.80;;
35074;SDS011;21260;34.984;32.490;2023-05-20T13:41:53;10.18;;;3.33;;
35074;SDS011;21260;34.984;32.490;2023-05-20T13:44:20;7.83;;;3.10;;
35074;SDS011;21260;34.984;32.490;2023-05-20T13:46:46;9.10;;;3.27;;
35074;SDS011;21260;34.984;32.490;2023-05-20T13:49:13;7.57;;;3.00;;
35074;SDS011;21260;34.984;32.490;2023-05-20T13:51:39;5.47;;;2.93;;
35074;SDS011;21260;34.984;32.490;2023-05-20T13:54:06;10.80;;;2.93;;
35074;SDS011;21260;34.984;32.490;2023-05-20T13:56:32;8.43;;;3.27;;
35074;SDS011;21260;34.984;32.490;2023-05-20T13:58:59;8.00;;;2.80;;
35074;SDS011;21260;34.984;32.490;2023-05-20T14:01:26;5.30;;;2.73;;
35074;SDS011;21260;34.984;32.490;2023-05-20T14:03:59;10.83;;;3.37;;
35074;SDS011;21260;34.984;32.490;2023-05-20T14:06:26;9.07;;;3.33;;
35074;SDS011;21260;34.984;32.490;2023-05-20T14:08:55;7.87;;;3.00;;
35074;SDS011;21260;34.984;32.490;2023-05-20T14:11:23;14.87;;;3.00;;
35074;SDS011;21260;34.984;32.490;2023-05-20T14:13:53;6.87;;;2.90;;
35074;SDS011;21260;34.984;32.490;2023-05-20T14:16:20;10.77;;;2.47;;
35074;SDS011;21260;34.984;32.490;2023-05-20T14:18:47;6.97;;;2.90;;
35074;SDS011;21260;34.984;32.490;2023-05-20T14:21:13;10.67;;;3.13;;
35074;SDS011;21260;34.984;32.490;2023-05-20T14:23:40;8.90;;;3.33;;
35074;SDS011;21260;34.984;32.490;2023-05-20T14:26:08;6.30;;;2.97;;
35074;SDS011;21260;34.984;32.490;2023-05-20T14:28:35;6.97;;;2.97;;
35074;SDS011;21260;34.984;32.490;2023-05-20T14:31:02;9.10;;;3.00;;
35074;SDS011;21260;34.984;32.490;2023-05-20T14:33:28;8.13;;;2.90;;
35074;SDS011;21260;34.984;32.490;2023-05-20T14:35:56;9.57;;;3.10;;
35074;SDS011;21260;34.984;32.490;2023-05-20T14:38:23;12.30;;;3.63;;
35074;SDS011;21260;34.984;32.490;2023-05-20T14:40:51;11.77;;;3.63;;
35074;SDS011;21260;34.984;32.490;2023-05-20T14:43:17;9.57;;;3.53;;